sensor_id;sensor_type;location;lat;lon;timestamp;P1;durP1;ratioP1;P2;durP2;ratioP2
54745;SDS011;40640;48.130;11.356;2023-02-01T00:03:58;6.78;;;3.22;;
54745;SDS011;40640;48.130;11.356;2023-02-01T00:08:00;8.18;;;3.30;;
54745;SDS011;40640;48.130;11.356;2023-02-01T00:12:03;6.72;;;3.20;;
54745;SDS011;40640;48.130;11.356;2023-02-01T00:16:08;5.18;;;2.95;;
54745;SDS011;40640;48.130;11.356;2023-02-01T00:20:13;7.22;;;3.20;;
54745;SDS011;40640;48.130;11.356;2023-02-01T00:24:16;5.45;;;3.08;;
54745;SDS011;40640;48.130;11.356;2023-02-01T00:28:19;7.25;;;3.53;;
54745;SDS011;40640;48.130;11.356;2023-02-01T00:32:23;6.40;;;3.25;;
54745;SDS011;40640;48.130;11.356;2023-02-01T00:36:26;5.47;;;3.33;;
54745;SDS011;40640;48.130;11.356;2023-02-01T00:40:29;5.63;;;3.42;;
54745;SDS011;40640;48.130;11.356;2023-02-01T00:44:33;6.53;;;3.35;;
54745;SDS011;40640;48.130;11.356;2023-02-01T00:48:38;9.23;;;3.70;;
54745;SDS011;40640;48.130;11.356;2023-02-01T00:52:41;5.07;;;3.60;;
54745;SDS011;40640;48.130;11.356;2023-02-01T00:56:44;7.50;;;3.45;;
54745;SDS011;40640;48.130;11.356;2023-02-01T01:00:46;6.10;;;3.55;;
54745;SDS011;40640;48.130;11.356;2023-02-01T01:04:52;9.93;;;3.90;;
54745;SDS011;40640;48.130;11.356;2023-02-01T01:08:56;7.45;;;4.05;;
54745;SDS011;40640;48.130;11.356;2023-02-01T01:12:59;8.50;;;4.28;;
54745;SDS011;40640;48.130;11.356;2023-02-01T01:17:02;8.68;;;4.28;;
54745;SDS011;40640;48.130;11.356;2023-02-01T01:21:07;7.60;;;4.13;;
54745;SDS011;40640;48.130;11.356;2023-02-01T01:25:10;6.57;;;4.07;;
54745;SDS011;40640;48.130;11.356;2023-02-01T01:29:13;9.02;;;4.50;;
54745;SDS011;40640;48.130;11.356;2023-02-01T01:33:16;8.63;;;4.57;;
54745;SDS011;40640;48.130;11.356;2023-02-01T01:37:20;9.07;;;5.13;;
54745;SDS011;40640;48.130;11.356;2023-02-01T01:41:24;8.65;;;4.63;;
54745;SDS011;40640;48.130;11.356;2023-02-01T01:45:30;9.40;;;4.80;;
54745;SDS011;40640;48.130;11.356;2023-02-01T01:49:34;9.55;;;5.13;;
54745;SDS011;40640;48.130;11.356;2023-02-01T01:53:41;10.65;;;5.82;;
54745;SDS011;40640;48.130;11.356;2023-02-01T01:57:48;11.23;;;5.32;;
54745;SDS011;40640;48.130;11.356;2023-02-01T02:01:56;7.28;;;5.00;;
54745;SDS011;40640;48.130;11.356;2023-02-01T02:05:58;13.98;;;5.82;;
54745;SDS011;40640;48.130;11.356;2023-02-01T02:10:05;9.73;;;5.30;;
54745;SDS011;40640;48.130;11.356;2023-02-01T02:14:12;9.93;;;5.63;;
54745;SDS011;40640;48.130;11.356;2023-02-01T02:18:18;9.68;;;5.28;;
54745;SDS011;40640;48.130;11.356;2023-02-01T02:22:40;11.07;;;6.03;;
54745;SDS011;40640;48.130;11.356;2023-02-01T02:27:15;9.10;;;5.05;;
54745;SDS011;40640;48.130;11.356;2023-02-01T02:31:40;10.85;;;4.78;;
54745;SDS011;40640;48.130;11.356;2023-02-01T02:35:59;9.90;;;4.72;;
54745;SDS011;40640;48.130;11.356;2023-02-01T02:40:04;12.63;;;5.68;;
54745;SDS011;40640;48.130;11.356;2023-02-01T02:44:17;12.75;;;5.43;;
54745;SDS011;40640;48.130;11.356;2023-02-01T02:48:44;7.97;;;4.55;;
54745;SDS011;40640;48.130;11.356;2023-02-01T02:52:54;7.85;;;5.00;;
54745;SDS011;40640;48.130;11.356;2023-02-01T02:57:19;7.97;;;4.63;;
54745;SDS011;40640;48.130;11.356;2023-02-01T03:01:42;7.50;;;4.63;;
54745;SDS011;40640;48.130;11.356;2023-02-01T03:06:03;8.10;;;4.40;;
54745;SDS011;40640;48.130;11.356;2023-02-01T03:10:10;11.45;;;4.78;;
54745;SDS011;40640;48.130;11.356;2023-02-01T03:14:19;6.88;;;4.40;;
54745;SDS011;40640;48.130;11.356;2023-02-01T03:18:26;7.38;;;4.32;;
54745;SDS011;40640;48.130;11.356;2023-02-01T03:22:34;10.25;;;3.80;;
54745;SDS011;40640;48.130;11.356;2023-02-01T03:26:42;11.07;;;4.78;;
54745;SDS011;40640;48.130;11.356;2023-02-01T03:30:50;8.43;;;4.70;;
54745;SDS011;40640;48.130;11.356;2023-02-01T03:34:54;9.00;;;4.22;;
54745;SDS011;40640;48.130;11.356;2023-02-01T03:38:59;9.13;;;4.22;;
54745;SDS011;40640;48.130;11.356;2023-02-01T03:43:08;6.82;;;4.40;;
54745;SDS011;40640;48.130;11.356;2023-02-01T03:47:18;6.85;;;4.68;;
54745;SDS011;40640;48.130;11.356;2023-02-01T03:51:25;8.55;;;4.53;;
54745;SDS011;40640;48.130;11.356;2023-02-01T03:55:28;7.95;;;3.90;;
54745;SDS011;40640;48.130;11.356;2023-02-01T03:59:34;7.05;;;4.15;;
54745;SDS011;40640;48.130;11.356;2023-02-01T04:03:39;10.18;;;4.55;;
54745;SDS011;40640;48.130;11.356;2023-02-01T04:07:43;10.02;;;4.05;;
54745;SDS011;40640;48.130;11.356;2023-02-01T04:11:46;7.65;;;4.13;;
54745;SDS011;40640;48.130;11.356;2023-02-01T04:15:50;9.55;;;4.57;;
54745;SDS011;40640;48.130;11.356;2023-02-01T04:19:53;8.73;;;4.18;;
54745;SDS011;40640;48.130;11.356;2023-02-01T04:23:56;7.40;;;4.78;;
54745;SDS011;40640;48.130;11.356;2023-02-01T04:27:59;8.13;;;4.55;;
54745;SDS011;40640;48.130;11.356;2023-02-01T04:32:03;8.95;;;4.10;;
54745;SDS011;40640;48.130;11.356;2023-02-01T04:36:06;9.45;;;5.13;;
54745;SDS011;40640;48.130;11.356;2023-02-01T04:40:10;11.32;;;4.28;;
54745;SDS011;40640;48.130;11.356;2023-02-01T04:44:14;7.57;;;4.75;;
54745;SDS011;40640;48.130;11.356;2023-02-01T04:48:20;15.18;;;4.82;;
54745;SDS011;40640;48.130;11.356;2023-02-01T04:52:25;6.68;;;4.45;;
54745;SDS011;40640;48.130;11.356;2023-02-01T04:56:28;8.30;;;4.47;;
54745;SDS011;40640;48.130;11.356;2023-02-01T05:00:31;18.05;;;8.43;;
54745;SDS011;40640;48.130;11.356;2023-02-01T05:04:35;9.40;;;4.63;;
54745;SDS011;40640;48.130;11.356;2023-02-01T05:08:38;11.75;;;5.85;;
54745;SDS011;40640;48.130;11.356;2023-02-01T05:12:42;8.98;;;5.10;;
54745;SDS011;40640;48.130;11.356;2023-02-01T05:17:02;8.75;;;5.00;;
54745;SDS011;40640;48.130;11.356;2023-02-01T05:21:06;9.45;;;5.22;;
54745;SDS011;40640;48.130;11.356;2023-02-01T05:25:09;9.75;;;4.70;;
54745;SDS011;40640;48.130;11.356;2023-02-01T05:29:12;8.23;;;5.10;;
54745;SDS011;40640;48.130;11.356;2023-02-01T05:33:16;7.85;;;4.75;;
54745;SDS011;40640;48.130;11.356;2023-02-01T05:37:20;9.02;;;4.85;;
54745;SDS011;40640;48.130;11.356;2023-02-01T05:41:23;8.40;;;4.72;;
54745;SDS011;40640;48.130;11.356;2023-02-01T05:45:26;10.13;;;5.22;;
54745;SDS011;40640;48.130;11.356;2023-02-01T05:49:28;11.55;;;5.50;;
54745;SDS011;40640;48.130;11.356;2023-02-01T05:53:33;8.85;;;5.07;;
54745;SDS011;40640;48.130;11.356;2023-02-01T05:57:35;7.55;;;4.45;;
54745;SDS011;40640;48.130;11.356;2023-02-01T06:01:38;9.20;;;4.93;;
54745;SDS011;40640;48.130;11.356;2023-02-01T06:05:43;9.90;;;4.45;;
54745;SDS011;40640;48.130;11.356;2023-02-01T06:09:47;10.40;;;5.70;;
54745;SDS011;40640;48.130;11.356;2023-02-01T06:13:50;8.15;;;4.60;;
54745;SDS011;40640;48.130;11.356;2023-02-01T06:17:53;7.35;;;4.70;;
54745;SDS011;40640;48.130;11.356;2023-02-01T06:21:56;10.73;;;5.22;;
54745;SDS011;40640;48.130;11.356;2023-02-01T06:26:00;10.18;;;5.00;;
54745;SDS011;40640;48.130;11.356;2023-02-01T06:30:06;9.85;;;4.70;;
54745;SDS011;40640;48.130;11.356;2023-02-01T06:34:10;7.70;;;4.82;;
54745;SDS011;40640;48.130;11.356;2023-02-01T06:38:13;8.15;;;5.07;;
54745;SDS011;40640;48.130;11.356;2023-02-01T06:42:18;9.55;;;4.55;;
54745;SDS011;40640;48.130;11.356;2023-02-01T06:46:20;8.73;;;4.80;;
54745;SDS011;40640;48.130;11.356;2023-02-01T06:50:23;8.60;;;4.47;;
54745;SDS011;40640;48.130;11.356;2023-02-01T06:54:26;8.52;;;4.05;;
54745;SDS011;40640;48.130;11.356;2023-02-01T06:58:31;6.50;;;3.85;;
54745;SDS011;40640;48.130;11.356;2023-02-01T07:02:35;4.63;;;3.30;;
54745;SDS011;40640;48.130;11.356;2023-02-01T07:06:38;11.07;;;5.45;;
54745;SDS011;40640;48.130;11.356;2023-02-01T07:10:41;11.85;;;4.80;;
54745;SDS011;40640;48.130;11.356;2023-02-01T07:14:45;13.60;;;4.85;;
54745;SDS011;40640;48.130;11.356;2023-02-01T07:18:49;6.75;;;3.45;;
54745;SDS011;40640;48.130;11.356;2023-02-01T07:22:54;5.10;;;3.20;;
54745;SDS011;40640;48.130;11.356;2023-02-01T07:26:58;5.10;;;3.53;;
54745;SDS011;40640;48.130;11.356;2023-02-01T07:31:06;4.32;;;3.05;;
54745;SDS011;40640;48.130;11.356;2023-02-01T07:35:10;9.93;;;3.88;;
54745;SDS011;40640;48.130;11.356;2023-02-01T07:39:13;4.70;;;2.90;;
54745;SDS011;40640;48.130;11.356;2023-02-01T07:43:16;9.15;;;2.90;;
54745;SDS011;40640;48.130;11.356;2023-02-01T07:47:20;6.78;;;3.80;;
54745;SDS011;40640;48.130;11.356;2023-02-01T07:51:23;23.30;;;7.82;;
54745;SDS011;40640;48.130;11.356;2023-02-01T07:55:26;19.38;;;7.50;;
54745;SDS011;40640;48.130;11.356;2023-02-01T07:59:29;12.75;;;5.78;;
54745;SDS011;40640;48.130;11.356;2023-02-01T08:03:33;15.27;;;6.57;;
54745;SDS011;40640;48.130;11.356;2023-02-01T08:07:36;14.60;;;7.00;;
54745;SDS011;40640;48.130;11.356;2023-02-01T08:11:39;7.05;;;3.65;;
54745;SDS011;40640;48.130;11.356;2023-02-01T08:15:42;4.25;;;2.63;;
54745;SDS011;40640;48.130;11.356;2023-02-01T08:19:46;8.07;;;3.05;;
54745;SDS011;40640;48.130;11.356;2023-02-01T08:23:48;4.38;;;2.75;;
54745;SDS011;40640;48.130;11.356;2023-02-01T08:27:51;3.90;;;2.38;;
54745;SDS011;40640;48.130;11.356;2023-02-01T08:31:55;4.72;;;2.33;;
54745;SDS011;40640;48.130;11.356;2023-02-01T08:36:01;4.57;;;2.90;;
54745;SDS011;40640;48.130;11.356;2023-02-01T08:40:05;4.03;;;2.42;;
54745;SDS011;40640;48.130;11.356;2023-02-01T08:44:09;5.43;;;3.08;;
54745;SDS011;40640;48.130;11.356;2023-02-01T08:48:12;4.65;;;3.10;;
54745;SDS011;40640;48.130;11.356;2023-02-01T08:52:16;4.68;;;3.15;;
54745;SDS011;40640;48.130;11.356;2023-02-01T08:56:19;4.28;;;2.78;;
54745;SDS011;40640;48.130;11.356;2023-02-01T09:00:22;4.95;;;3.00;;
54745;SDS011;40640;48.130;11.356;2023-02-01T09:04:26;5.45;;;3.20;;
54745;SDS011;40640;48.130;11.356;2023-02-01T09:08:30;3.45;;;2.85;;
54745;SDS011;40640;48.130;11.356;2023-02-01T09:12:33;4.35;;;2.72;;
54745;SDS011;40640;48.130;11.356;2023-02-01T09:16:37;7.40;;;3.35;;
54745;SDS011;40640;48.130;11.356;2023-02-01T09:20:40;3.38;;;2.53;;
54745;SDS011;40640;48.130;11.356;2023-02-01T09:24:44;3.17;;;2.45;;
54745;SDS011;40640;48.130;11.356;2023-02-01T09:28:47;10.25;;;2.75;;
54745;SDS011;40640;48.130;11.356;2023-02-01T09:32:49;3.63;;;2.08;;
54745;SDS011;40640;48.130;11.356;2023-02-01T09:36:52;5.10;;;2.30;;
54745;SDS011;40640;48.130;11.356;2023-02-01T09:40:57;3.53;;;2.28;;
54745;SDS011;40640;48.130;11.356;2023-02-01T09:45:06;5.78;;;3.10;;
54745;SDS011;40640;48.130;11.356;2023-02-01T09:49:18;4.50;;;2.42;;
54745;SDS011;40640;48.130;11.356;2023-02-01T09:53:25;5.38;;;2.90;;
54745;SDS011;40640;48.130;11.356;2023-02-01T09:57:38;2.80;;;2.20;;
54745;SDS011;40640;48.130;11.356;2023-02-01T10:01:46;3.35;;;2.30;;
54745;SDS011;40640;48.130;11.356;2023-02-01T10:10:28;3.72;;;2.45;;
54745;SDS011;40640;48.130;11.356;2023-02-01T10:14:40;5.32;;;3.15;;
54745;SDS011;40640;48.130;11.356;2023-02-01T10:19:17;5.10;;;3.03;;
54745;SDS011;40640;48.130;11.356;2023-02-01T10:23:46;4.13;;;2.90;;
54745;SDS011;40640;48.130;11.356;2023-02-01T10:28:01;6.40;;;2.63;;
54745;SDS011;40640;48.130;11.356;2023-02-01T10:32:19;10.60;;;2.47;;
54745;SDS011;40640;48.130;11.356;2023-02-01T10:36:27;2.75;;;2.33;;
54745;SDS011;40640;48.130;11.356;2023-02-01T10:40:33;4.57;;;2.53;;
54745;SDS011;40640;48.130;11.356;2023-02-01T10:44:36;5.60;;;3.10;;
54745;SDS011;40640;48.130;11.356;2023-02-01T10:48:45;3.70;;;2.88;;
54745;SDS011;40640;48.130;11.356;2023-02-01T10:56:55;9.25;;;4.50;;
54745;SDS011;40640;48.130;11.356;2023-02-01T11:01:00;9.43;;;4.95;;
54745;SDS011;40640;48.130;11.356;2023-02-01T11:05:07;9.13;;;4.35;;
54745;SDS011;40640;48.130;11.356;2023-02-01T11:09:16;5.22;;;3.42;;
54745;SDS011;40640;48.130;11.356;2023-02-01T11:13:22;6.70;;;3.08;;
54745;SDS011;40640;48.130;11.356;2023-02-01T11:17:33;5.05;;;3.30;;
54745;SDS011;40640;48.130;11.356;2023-02-01T11:21:39;9.90;;;3.05;;
54745;SDS011;40640;48.130;11.356;2023-02-01T11:25:49;6.15;;;4.07;;
54745;SDS011;40640;48.130;11.356;2023-02-01T11:29:57;8.10;;;3.78;;
54745;SDS011;40640;48.130;11.356;2023-02-01T11:34:06;4.78;;;3.17;;
54745;SDS011;40640;48.130;11.356;2023-02-01T11:38:21;8.68;;;3.40;;
54745;SDS011;40640;48.130;11.356;2023-02-01T11:42:29;5.50;;;3.25;;
54745;SDS011;40640;48.130;11.356;2023-02-01T11:46:32;15.48;;;4.18;;
54745;SDS011;40640;48.130;11.356;2023-02-01T11:50:38;11.15;;;4.22;;
54745;SDS011;40640;48.130;11.356;2023-02-01T11:54:56;7.32;;;3.40;;
54745;SDS011;40640;48.130;11.356;2023-02-01T11:59:19;7.15;;;3.75;;
54745;SDS011;40640;48.130;11.356;2023-02-01T12:08:24;5.57;;;3.55;;
54745;SDS011;40640;48.130;11.356;2023-02-01T12:12:48;5.70;;;3.30;;
54745;SDS011;40640;48.130;11.356;2023-02-01T12:17:05;5.40;;;3.17;;
54745;SDS011;40640;48.130;11.356;2023-02-01T12:21:27;9.43;;;3.70;;
54745;SDS011;40640;48.130;11.356;2023-02-01T12:25:42;11.40;;;4.28;;
54745;SDS011;40640;48.130;11.356;2023-02-01T12:30:03;6.72;;;3.15;;
54745;SDS011;40640;48.130;11.356;2023-02-01T12:34:29;7.93;;;3.63;;
54745;SDS011;40640;48.130;11.356;2023-02-01T12:38:50;11.25;;;3.17;;
54745;SDS011;40640;48.130;11.356;2023-02-01T12:42:58;10.70;;;3.58;;
54745;SDS011;40640;48.130;11.356;2023-02-01T12:47:06;8.70;;;3.47;;
54745;SDS011;40640;48.130;11.356;2023-02-01T12:51:17;9.25;;;4.28;;
54745;SDS011;40640;48.130;11.356;2023-02-01T12:55:23;11.85;;;4.57;;
54745;SDS011;40640;48.130;11.356;2023-02-01T12:59:28;13.60;;;4.15;;
54745;SDS011;40640;48.130;11.356;2023-02-01T13:03:39;12.27;;;4.05;;
54745;SDS011;40640;48.130;11.356;2023-02-01T13:07:48;8.30;;;3.95;;
54745;SDS011;40640;48.130;11.356;2023-02-01T13:12:06;10.52;;;4.50;;
54745;SDS011;40640;48.130;11.356;2023-02-01T13:16:15;5.45;;;3.70;;
54745;SDS011;40640;48.130;11.356;2023-02-01T13:20:28;7.63;;;3.78;;
54745;SDS011;40640;48.130;11.356;2023-02-01T13:24:36;8.85;;;4.00;;
54745;SDS011;40640;48.130;11.356;2023-02-01T13:28:44;8.05;;;3.53;;
54745;SDS011;40640;48.130;11.356;2023-02-01T13:32:54;9.60;;;3.53;;
54745;SDS011;40640;48.130;11.356;2023-02-01T13:37:47;7.60;;;3.47;;
54745;SDS011;40640;48.130;11.356;2023-02-01T13:42:18;5.18;;;2.70;;
54745;SDS011;40640;48.130;11.356;2023-02-01T13:46:23;7.38;;;3.33;;
54745;SDS011;40640;48.130;11.356;2023-02-01T13:50:27;4.10;;;3.03;;
54745;SDS011;40640;48.130;11.356;2023-02-01T13:54:37;4.00;;;2.80;;
54745;SDS011;40640;48.130;11.356;2023-02-01T13:58:42;4.22;;;2.75;;
54745;SDS011;40640;48.130;11.356;2023-02-01T14:02:50;4.50;;;2.50;;
54745;SDS011;40640;48.130;11.356;2023-02-01T14:07:15;6.28;;;2.63;;
54745;SDS011;40640;48.130;11.356;2023-02-01T14:11:35;5.80;;;2.55;;
54745;SDS011;40640;48.130;11.356;2023-02-01T14:15:53;5.63;;;2.65;;
54745;SDS011;40640;48.130;11.356;2023-02-01T14:24:55;4.18;;;2.30;;
54745;SDS011;40640;48.130;11.356;2023-02-01T14:29:02;7.27;;;2.23;;
54745;SDS011;40640;48.130;11.356;2023-02-01T14:33:24;6.47;;;2.65;;
54745;SDS011;40640;48.130;11.356;2023-02-01T14:37:30;8.07;;;2.37;;
54745;SDS011;40640;48.130;11.356;2023-02-01T14:41:34;6.30;;;2.42;;
54745;SDS011;40640;48.130;11.356;2023-02-01T14:45:49;9.00;;;2.30;;
54745;SDS011;40640;48.130;11.356;2023-02-01T14:49:55;9.63;;;2.90;;
54745;SDS011;40640;48.130;11.356;2023-02-01T14:54:00;3.72;;;2.33;;
54745;SDS011;40640;48.130;11.356;2023-02-01T14:58:04;5.47;;;2.28;;
54745;SDS011;40640;48.130;11.356;2023-02-01T15:02:18;6.28;;;2.60;;
54745;SDS011;40640;48.130;11.356;2023-02-01T15:06:26;7.25;;;2.67;;
54745;SDS011;40640;48.130;11.356;2023-02-01T15:10:39;6.40;;;2.55;;
54745;SDS011;40640;48.130;11.356;2023-02-01T15:14:45;4.50;;;2.60;;
54745;SDS011;40640;48.130;11.356;2023-02-01T15:18:52;5.95;;;2.00;;
54745;SDS011;40640;48.130;11.356;2023-02-01T15:23:16;4.10;;;2.08;;
54745;SDS011;40640;48.130;11.356;2023-02-01T15:27:19;7.63;;;2.13;;
54745;SDS011;40640;48.130;11.356;2023-02-01T15:35:48;5.15;;;2.47;;
54745;SDS011;40640;48.130;11.356;2023-02-01T15:40:02;11.18;;;3.00;;
54745;SDS011;40640;48.130;11.356;2023-02-01T15:44:11;7.35;;;3.05;;
54745;SDS011;40640;48.130;11.356;2023-02-01T15:48:20;5.93;;;2.47;;
54745;SDS011;40640;48.130;11.356;2023-02-01T15:52:35;9.48;;;2.72;;
54745;SDS011;40640;48.130;11.356;2023-02-01T15:56:40;8.00;;;3.10;;
54745;SDS011;40640;48.130;11.356;2023-02-01T16:00:44;6.00;;;2.13;;
54745;SDS011;40640;48.130;11.356;2023-02-01T16:04:48;6.00;;;2.15;;
54745;SDS011;40640;48.130;11.356;2023-02-01T16:08:54;8.85;;;2.22;;
54745;SDS011;40640;48.130;11.356;2023-02-01T16:13:03;9.30;;;2.17;;
54745;SDS011;40640;48.130;11.356;2023-02-01T16:17:07;7.18;;;1.98;;
54745;SDS011;40640;48.130;11.356;2023-02-01T16:21:11;4.63;;;1.92;;
54745;SDS011;40640;48.130;11.356;2023-02-01T16:25:15;6.60;;;2.00;;
54745;SDS011;40640;48.130;11.356;2023-02-01T16:29:18;5.18;;;2.20;;
54745;SDS011;40640;48.130;11.356;2023-02-01T16:33:22;4.70;;;2.30;;
54745;SDS011;40640;48.130;11.356;2023-02-01T16:37:26;10.63;;;2.60;;
54745;SDS011;40640;48.130;11.356;2023-02-01T16:41:31;12.93;;;3.05;;
54745;SDS011;40640;48.130;11.356;2023-02-01T16:45:35;7.65;;;2.78;;
54745;SDS011;40640;48.130;11.356;2023-02-01T16:49:40;5.90;;;2.23;;
54745;SDS011;40640;48.130;11.356;2023-02-01T16:53:44;9.25;;;3.90;;
54745;SDS011;40640;48.130;11.356;2023-02-01T16:57:56;10.30;;;2.85;;
54745;SDS011;40640;48.130;11.356;2023-02-01T17:01:59;81.47;;;22.55;;
54745;SDS011;40640;48.130;11.356;2023-02-01T17:06:02;127.60;;;37.42;;
54745;SDS011;40640;48.130;11.356;2023-02-01T17:10:05;66.75;;;17.33;;
54745;SDS011;40640;48.130;11.356;2023-02-01T17:14:13;92.72;;;30.02;;
54745;SDS011;40640;48.130;11.356;2023-02-01T17:18:18;27.55;;;11.68;;
54745;SDS011;40640;48.130;11.356;2023-02-01T17:22:21;21.80;;;8.00;;
54745;SDS011;40640;48.130;11.356;2023-02-01T17:26:24;22.95;;;7.88;;
54745;SDS011;40640;48.130;11.356;2023-02-01T17:30:29;9.50;;;3.45;;
54745;SDS011;40640;48.130;11.356;2023-02-01T17:34:32;13.13;;;3.08;;
54745;SDS011;40640;48.130;11.356;2023-02-01T17:38:35;13.13;;;4.93;;
54745;SDS011;40640;48.130;11.356;2023-02-01T17:42:37;22.08;;;5.32;;
54745;SDS011;40640;48.130;11.356;2023-02-01T17:46:42;21.58;;;7.25;;
54745;SDS011;40640;48.130;11.356;2023-02-01T17:50:45;20.75;;;5.45;;
54745;SDS011;40640;48.130;11.356;2023-02-01T17:54:50;14.98;;;2.92;;
54745;SDS011;40640;48.130;11.356;2023-02-01T17:58:54;10.63;;;2.80;;
54745;SDS011;40640;48.130;11.356;2023-02-01T18:02:58;11.25;;;3.10;;
54745;SDS011;40640;48.130;11.356;2023-02-01T18:07:02;14.02;;;3.10;;
54745;SDS011;40640;48.130;11.356;2023-02-01T18:11:05;9.05;;;2.35;;
54745;SDS011;40640;48.130;11.356;2023-02-01T18:15:15;9.40;;;2.20;;
54745;SDS011;40640;48.130;11.356;2023-02-01T18:19:21;6.20;;;1.75;;
54745;SDS011;40640;48.130;11.356;2023-02-01T18:23:24;3.25;;;1.80;;
54745;SDS011;40640;48.130;11.356;2023-02-01T18:27:27;10.88;;;1.98;;
54745;SDS011;40640;48.130;11.356;2023-02-01T18:31:31;10.18;;;2.38;;
54745;SDS011;40640;48.130;11.356;2023-02-01T18:35:36;7.30;;;2.15;;
54745;SDS011;40640;48.130;11.356;2023-02-01T18:39:39;5.13;;;2.13;;
54745;SDS011;40640;48.130;11.356;2023-02-01T18:43:42;6.40;;;1.98;;
54745;SDS011;40640;48.130;11.356;2023-02-01T18:47:45;9.40;;;2.40;;
54745;SDS011;40640;48.130;11.356;2023-02-01T18:51:49;7.75;;;2.20;;
54745;SDS011;40640;48.130;11.356;2023-02-01T18:55:53;8.75;;;1.98;;
54745;SDS011;40640;48.130;11.356;2023-02-01T18:59:56;7.88;;;2.38;;
54745;SDS011;40640;48.130;11.356;2023-02-01T19:03:59;8.90;;;2.40;;
54745;SDS011;40640;48.130;11.356;2023-02-01T19:08:20;10.45;;;2.20;;
54745;SDS011;40640;48.130;11.356;2023-02-01T19:12:24;13.80;;;2.88;;
54745;SDS011;40640;48.130;11.356;2023-02-01T19:16:27;13.80;;;2.95;;
54745;SDS011;40640;48.130;11.356;2023-02-01T19:20:30;4.28;;;1.88;;
54745;SDS011;40640;48.130;11.356;2023-02-01T19:24:34;6.32;;;2.10;;
54745;SDS011;40640;48.130;11.356;2023-02-01T19:28:37;7.25;;;1.77;;
54745;SDS011;40640;48.130;11.356;2023-02-01T19:32:40;6.80;;;2.00;;
54745;SDS011;40640;48.130;11.356;2023-02-01T19:36:43;6.97;;;2.00;;
54745;SDS011;40640;48.130;11.356;2023-02-01T19:40:48;18.15;;;2.65;;
54745;SDS011;40640;48.130;11.356;2023-02-01T19:44:51;8.38;;;2.13;;
54745;SDS011;40640;48.130;11.356;2023-02-01T19:48:54;10.40;;;2.63;;
54745;SDS011;40640;48.130;11.356;2023-02-01T19:52:57;15.55;;;2.45;;
54745;SDS011;40640;48.130;11.356;2023-02-01T19:57:01;8.23;;;1.60;;
54745;SDS011;40640;48.130;11.356;2023-02-01T20:01:04;7.82;;;1.90;;
54745;SDS011;40640;48.130;11.356;2023-02-01T20:05:08;5.13;;;2.00;;
54745;SDS011;40640;48.130;11.356;2023-02-01T20:09:12;5.25;;;1.63;;
54745;SDS011;40640;48.130;11.356;2023-02-01T20:13:17;5.95;;;1.60;;
54745;SDS011;40640;48.130;11.356;2023-02-01T20:17:20;12.05;;;2.50;;
54745;SDS011;40640;48.130;11.356;2023-02-01T20:21:23;6.85;;;2.05;;
54745;SDS011;40640;48.130;11.356;2023-02-01T20:25:26;9.18;;;1.90;;
54745;SDS011;40640;48.130;11.356;2023-02-01T20:29:30;7.47;;;2.42;;
54745;SDS011;40640;48.130;11.356;2023-02-01T20:33:33;11.77;;;2.20;;
54745;SDS011;40640;48.130;11.356;2023-02-01T20:37:36;9.35;;;2.33;;
54745;SDS011;40640;48.130;11.356;2023-02-01T20:41:39;4.28;;;1.48;;
54745;SDS011;40640;48.130;11.356;2023-02-01T20:45:43;8.95;;;1.92;;
54745;SDS011;40640;48.130;11.356;2023-02-01T20:49:46;14.18;;;3.10;;
54745;SDS011;40640;48.130;11.356;2023-02-01T20:53:49;12.60;;;2.90;;
54745;SDS011;40640;48.130;11.356;2023-02-01T20:57:55;11.13;;;2.53;;
54745;SDS011;40640;48.130;11.356;2023-02-01T21:01:59;9.73;;;2.55;;
54745;SDS011;40640;48.130;11.356;2023-02-01T21:06:03;10.57;;;2.10;;
54745;SDS011;40640;48.130;11.356;2023-02-01T21:10:07;5.50;;;1.85;;
54745;SDS011;40640;48.130;11.356;2023-02-01T21:14:11;9.50;;;1.98;;
54745;SDS011;40640;48.130;11.356;2023-02-01T21:18:16;4.63;;;1.85;;
54745;SDS011;40640;48.130;11.356;2023-02-01T21:22:19;12.68;;;2.22;;
54745;SDS011;40640;48.130;11.356;2023-02-01T21:26:23;12.15;;;2.10;;
54745;SDS011;40640;48.130;11.356;2023-02-01T21:30:27;9.15;;;2.47;;
54745;SDS011;40640;48.130;11.356;2023-02-01T21:34:31;9.98;;;2.38;;
54745;SDS011;40640;48.130;11.356;2023-02-01T21:38:34;7.40;;;1.77;;
54745;SDS011;40640;48.130;11.356;2023-02-01T21:42:37;16.13;;;3.38;;
54745;SDS011;40640;48.130;11.356;2023-02-01T21:46:42;11.43;;;1.90;;
54745;SDS011;40640;48.130;11.356;2023-02-01T21:50:46;6.70;;;2.17;;
54745;SDS011;40640;48.130;11.356;2023-02-01T21:54:50;3.65;;;1.40;;
54745;SDS011;40640;48.130;11.356;2023-02-01T21:58:59;8.85;;;1.98;;
54745;SDS011;40640;48.130;11.356;2023-02-01T22:03:02;7.80;;;1.90;;
54745;SDS011;40640;48.130;11.356;2023-02-01T22:07:06;5.38;;;1.65;;
54745;SDS011;40640;48.130;11.356;2023-02-01T22:11:09;7.20;;;2.05;;
54745;SDS011;40640;48.130;11.356;2023-02-01T22:15:12;6.25;;;1.23;;
54745;SDS011;40640;48.130;11.356;2023-02-01T22:19:14;7.70;;;1.77;;
54745;SDS011;40640;48.130;11.356;2023-02-01T22:23:19;11.15;;;2.58;;
54745;SDS011;40640;48.130;11.356;2023-02-01T22:27:21;6.32;;;1.38;;
54745;SDS011;40640;48.130;11.356;2023-02-01T22:31:44;9.63;;;1.58;;
54745;SDS011;40640;48.130;11.356;2023-02-01T22:35:48;11.82;;;2.10;;
54745;SDS011;40640;48.130;11.356;2023-02-01T22:39:52;8.48;;;1.75;;
54745;SDS011;40640;48.130;11.356;2023-02-01T22:43:58;5.07;;;2.30;;
54745;SDS011;40640;48.130;11.356;2023-02-01T22:48:01;8.90;;;1.65;;
54745;SDS011;40640;48.130;11.356;2023-02-01T22:52:04;9.55;;;2.20;;
54745;SDS011;40640;48.130;11.356;2023-02-01T22:56:09;7.57;;;2.13;;
54745;SDS011;40640;48.130;11.356;2023-02-01T23:00:13;9.50;;;2.42;;
54745;SDS011;40640;48.130;11.356;2023-02-01T23:04:16;9.95;;;2.53;;
54745;SDS011;40640;48.130;11.356;2023-02-01T23:08:21;15.55;;;2.20;;
54745;SDS011;40640;48.130;11.356;2023-02-01T23:12:25;3.53;;;1.58;;
54745;SDS011;40640;48.130;11.356;2023-02-01T23:16:28;7.35;;;1.65;;
54745;SDS011;40640;48.130;11.356;2023-02-01T23:20:31;7.20;;;1.73;;
54745;SDS011;40640;48.130;11.356;2023-02-01T23:24:34;11.00;;;2.22;;
54745;SDS011;40640;48.130;11.356;2023-02-01T23:28:38;8.75;;;2.15;;
54745;SDS011;40640;48.130;11.356;2023-02-01T23:32:41;12.32;;;1.73;;
54745;SDS011;40640;48.130;11.356;2023-02-01T23:36:43;8.48;;;1.38;;
54745;SDS011;40640;48.130;11.356;2023-02-01T23:40:46;3.47;;;1.50;;
54745;SDS011;40640;48.130;11.356;2023-02-01T23:44:52;8.50;;;1.38;;
54745;SDS011;40640;48.130;11.356;2023-02-01T23:48:55;5.13;;;1.55;;
54745;SDS011;40640;48.130;11.356;2023-02-01T23:52:59;8.50;;;1.75;;
54745;SDS011;40640;48.130;11.356;2023-02-01T23:57:02;8.75;;;2.08;;
